Hardingstone, United Kingdom
Current Conditions -  °F | °C
As of 7:50 AM on Wednesday 26 Nov 2014 (Local Time) from EGTC Reporting Station
Moderate Fog Moderate Fog  
Wind Chill: 41°   Ceiling: 200
Heat Index: 45°   Visibility: 0.56mi
Dew Point: 45°   Wind: 6mph
Humidity: 100%   Direction: 60°ENE
Pressure: 29.88"   Gusts: NA
Location:  52.21°N, 0.89°W
Report Text: EGTC 260750Z 06005KT 0900 FG OVC002 07/07 Q1012
Loading
Personal Weather Stations






























Interactive Weather Map New forecast layout! Learn more

10-Day Weather Forecast

Advertisements
Track Severe Weather on mobile